Time,TemperatureF,DewpointF,PressureIn,WindDirection,WindDirectionDegrees,WindSpeedMPH,WindSpeedGustMPH,Humidity,HourlyPrecipIn,Conditions,Clouds,dailyrainin,SolarRadiationWatts/m^2,SoftwareType,DateUTC
2013-11-10 00:00:00,76.2,72.7,30.08,ENE,70,5.0,10.0,89,0.00,,FEW021,0.00,0.00,VWS V14.01,2013-11-10 05:00:00,
2013-11-10 00:01:00,76.2,72.7,30.08,NE,45,3.0,10.0,89,0.00,,FEW021,0.00,0.00,VWS V14.01,2013-11-10 05:01:00,
2013-11-10 00:06:00,76.3,72.5,30.08,NNE,29,6.0,11.0,88,0.00,,FEW021,0.00,0.00,VWS V14.01,2013-11-10 05:06:00,
2013-11-10 00:11:00,76.4,72.6,30.08,ENE,67,3.0,12.0,88,0.00,,FEW021,0.00,0.00,VWS V14.01,2013-11-10 05:11:00,
2013-11-10 00:16:00,76.4,72.6,30.08,ENE,71,11.0,11.0,88,0.00,,FEW021,0.00,0.00,VWS V14.01,2013-11-10 05:16:00,
2013-11-10 00:21:00,76.5,72.7,30.08,NE,36,7.0,10.0,88,0.00,,FEW021,0.00,0.00,VWS V14.01,2013-11-10 05:21:00,
2013-11-10 00:26:00,76.5,72.7,30.08,NE,49,8.0,11.0,88,0.00,,FEW021,0.00,0.00,VWS V14.01,2013-11-10 05:26:00,
2013-11-10 00:31:00,76.6,72.8,30.07,NE,36,15.0,15.0,88,0.00,,FEW021,0.00,0.00,VWS V14.01,2013-11-10 05:31:00,
2013-11-10 00:36:00,76.7,72.5,30.07,NE,49,4.0,9.0,87,0.00,,FEW021,0.00,0.00,VWS V14.01,2013-11-10 05:36:00,
2013-11-10 00:41:00,76.8,72.6,30.07,ESE,119,7.0,8.0,87,0.00,,FEW021,0.00,0.00,VWS V14.01,2013-11-10 05:41:00,
2013-11-10 00:46:00,76.9,72.7,30.07,NE,46,4.0,8.0,87,0.00,,FEW021,0.00,0.00,VWS V14.01,2013-11-10 05:46:00,
2013-11-10 00:51:00,76.9,72.7,30.07,ENE,67,2.0,7.0,87,0.00,,FEW021,0.00,0.00,VWS V14.01,2013-11-10 05:51:00,
2013-11-10 00:56:00,76.9,72.7,30.07,NE,38,3.0,8.0,87,0.00,,FEW021,0.00,0.00,VWS V14.01,2013-11-10 05:56:00,
2013-11-10 01:01:00,76.9,72.7,30.07,NE,47,8.0,8.0,87,0.00,,FEW021,0.00,0.00,VWS V14.01,2013-11-10 06:01:00,
2013-11-10 01:06:00,76.9,72.7,30.07,NE,45,2.0,8.0,87,0.00,,FEW021,0.00,0.00,VWS V14.01,2013-11-10 06:06:00,
2013-11-10 01:11:00,76.8,72.6,30.07,East,88,3.0,13.0,87,0.00,,FEW021,0.00,0.00,VWS V14.01,2013-11-10 06:11:00,
2013-11-10 01:16:00,76.8,72.6,30.07,East,96,5.0,8.0,87,0.01,,FEW021,0.01,0.00,VWS V14.01,2013-11-10 06:16:00,
2013-11-10 01:21:00,76.7,72.9,30.07,ENE,71,4.0,9.0,88,0.06,,FEW021,0.06,0.00,VWS V14.01,2013-11-10 06:21:00,
2013-11-10 01:26:00,76.3,72.8,30.07,ENE,74,2.0,8.0,89,0.08,,FEW021,0.08,0.00,VWS V14.01,2013-11-10 06:26:00,
2013-11-10 01:31:00,75.9,72.4,30.07,NE,47,1.0,7.0,89,0.11,,FEW021,0.11,0.00,VWS V14.01,2013-11-10 06:31:00,
2013-11-10 01:36:00,75.6,72.5,30.07,ENE,67,2.0,6.0,90,0.14,,FEW021,0.14,0.00,VWS V14.01,2013-11-10 06:36:00,
2013-11-10 01:41:00,75.3,72.5,30.07,NE,34,5.0,9.0,91,0.17,,FEW021,0.17,0.00,VWS V14.01,2013-11-10 06:41:00,
2013-11-10 01:46:00,75.0,72.5,30.07,ENE,71,3.0,11.0,92,0.18,,FEW021,0.18,0.00,VWS V14.01,2013-11-10 06:46:00,
2013-11-10 01:51:00,74.8,72.3,30.06,NE,46,4.0,10.0,92,0.18,,FEW021,0.18,0.00,VWS V14.01,2013-11-10 06:51:00,
2013-11-10 01:56:00,74.5,72.0,30.06,ENE,70,5.0,9.0,92,0.18,,FEW021,0.18,0.00,VWS V14.01,2013-11-10 06:56:00,
2013-11-10 02:01:00,74.4,72.2,30.06,NE,46,7.0,11.0,93,0.19,,FEW021,0.19,0.00,VWS V14.01,2013-11-10 07:01:00,
2013-11-10 02:06:00,74.4,72.6,30.06,NE,49,3.0,11.0,94,0.20,,FEW021,0.20,0.00,VWS V14.01,2013-11-10 07:06:00,
2013-11-10 02:11:00,74.5,72.7,30.05,NE,34,7.0,13.0,94,0.21,,FEW021,0.21,0.00,VWS V14.01,2013-11-10 07:11:00,
2013-11-10 02:16:00,74.6,72.8,30.06,NE,38,5.0,9.0,94,0.21,,FEW021,0.21,0.00,VWS V14.01,2013-11-10 07:16:00,
2013-11-10 02:21:00,74.6,72.8,30.06,NE,40,4.0,6.0,94,0.21,,FEW021,0.25,0.00,VWS V14.01,2013-11-10 07:21:00,
2013-11-10 02:26:00,74.6,72.8,30.06,NE,51,1.0,3.0,94,0.21,,FEW021,0.28,0.00,VWS V14.01,2013-11-10 07:26:00,
2013-11-10 02:31:00,74.7,72.9,30.05,NNE,33,3.0,3.0,94,0.19,,FEW021,0.28,0.00,VWS V14.01,2013-11-10 07:31:00,
2013-11-10 02:36:00,74.6,72.8,30.05,NNE,32,3.0,5.0,94,0.16,,FEW021,0.28,0.00,VWS V14.01,2013-11-10 07:36:00,
2013-11-10 02:41:00,74.6,72.8,30.05,NE,47,1.0,5.0,94,0.12,,FEW021,0.28,0.00,VWS V14.01,2013-11-10 07:41:00,
2013-11-10 02:46:00,74.6,72.8,30.05,NE,44,4.0,6.0,94,0.12,,FEW021,0.29,0.00,VWS V14.01,2013-11-10 07:46:00,
2013-11-10 02:51:00,74.6,72.8,30.05,NE,41,3.0,5.0,94,0.12,,FEW021,0.30,0.00,VWS V14.01,2013-11-10 07:51:00,
2013-11-10 02:56:00,74.6,73.1,30.06,NE,41,4.0,8.0,95,0.13,,FEW021,0.31,0.00,VWS V14.01,2013-11-10 07:56:00,
2013-11-10 03:01:00,74.6,73.1,30.05,East,92,0.0,7.0,95,0.13,,FEW021,0.31,0.00,VWS V14.01,2013-11-10 08:01:00,
2013-11-10 03:06:00,74.7,73.2,30.06,ENE,70,2.0,7.0,95,0.12,,FEW021,0.31,0.00,VWS V14.01,2013-11-10 08:06:00,
2013-11-10 03:11:00,74.7,73.2,30.06,ESE,115,2.0,7.0,95,0.12,,FEW021,0.33,0.00,VWS V14.01,2013-11-10 08:11:00,
2013-11-10 03:16:00,74.7,73.2,30.06,East,89,0.0,2.0,95,0.13,,FEW021,0.34,0.00,VWS V14.01,2013-11-10 08:16:00,
2013-11-10 03:21:00,74.7,73.2,30.06,East,86,1.0,3.0,95,0.13,,FEW021,0.35,0.00,VWS V14.01,2013-11-10 08:21:00,
2013-11-10 03:26:00,74.8,73.3,30.06,NE,34,3.0,5.0,95,0.10,,FEW021,0.37,0.00,VWS V14.01,2013-11-10 08:26:00,
2013-11-10 03:31:00,74.8,73.3,30.06,ENE,67,1.0,5.0,95,0.10,,FEW021,0.38,0.00,VWS V14.01,2013-11-10 08:31:00,
2013-11-10 03:36:00,74.8,73.3,30.05,NE,45,1.0,3.0,95,0.11,,FEW021,0.39,0.00,VWS V14.01,2013-11-10 08:36:00,
2013-11-10 03:41:00,74.8,73.3,30.05,East,96,2.0,7.0,95,0.15,,FEW021,0.43,0.00,VWS V14.01,2013-11-10 08:41:00,
2013-11-10 03:46:00,74.6,72.8,30.05,NE,44,4.0,7.0,94,0.14,,FEW021,0.43,0.00,VWS V14.01,2013-11-10 08:46:00,
2013-11-10 03:51:00,74.5,73.0,30.05,East,90,1.0,3.0,95,0.13,,FEW021,0.43,0.00,VWS V14.01,2013-11-10 08:51:00,
2013-11-10 03:56:00,74.4,72.9,30.05,NE,40,2.0,5.0,95,0.15,,FEW021,0.45,0.00,VWS V14.01,2013-11-10 08:56:00,
2013-11-10 04:01:00,74.4,72.9,30.05,NE,51,3.0,7.0,95,0.14,,FEW021,0.45,0.00,VWS V14.01,2013-11-10 09:01:00,
2013-11-10 04:06:00,74.3,72.8,30.05,ENE,74,1.0,3.0,95,0.14,,FEW021,0.45,0.00,VWS V14.01,2013-11-10 09:06:00,
2013-11-10 04:11:00,74.4,72.9,30.05,NE,36,2.0,4.0,95,0.13,,FEW021,0.45,0.00,VWS V14.01,2013-11-10 09:11:00,
2013-11-10 04:16:00,74.5,73.0,30.05,NE,41,3.0,8.0,95,0.11,,FEW021,0.45,0.00,VWS V14.01,2013-11-10 09:16:00,
2013-11-10 04:21:00,74.6,73.1,30.05,NE,50,3.0,5.0,95,0.11,,FEW021,0.45,0.00,VWS V14.01,2013-11-10 09:21:00,
2013-11-10 04:26:00,74.6,73.1,30.05,NNE,29,2.0,9.0,95,0.09,,FEW021,0.45,0.00,VWS V14.01,2013-11-10 09:26:00,
2013-11-10 04:31:00,74.7,73.2,30.05,NE,48,5.0,5.0,95,0.09,,FEW021,0.46,0.00,VWS V14.01,2013-11-10 09:31:00,
2013-11-10 04:36:00,74.8,73.3,30.05,NE,36,2.0,5.0,95,0.10,,FEW021,0.49,0.00,VWS V14.01,2013-11-10 09:36:00,
2013-11-10 04:41:00,74.8,73.3,30.05,NE,37,3.0,5.0,95,0.15,,FEW021,0.57,0.00,VWS V14.01,2013-11-10 09:41:00,
2013-11-10 04:46:00,74.8,73.3,30.06,NNE,26,6.0,10.0,95,0.17,,FEW021,0.60,0.00,VWS V14.01,2013-11-10 09:46:00,
2013-11-10 04:51:00,74.8,73.0,30.06,ENE,71,1.0,5.0,94,0.17,,FEW021,0.60,0.00,VWS V14.01,2013-11-10 09:51:00,
2013-11-10 04:56:00,74.9,73.1,30.05,NE,49,1.0,1.0,94,0.16,,FEW021,0.60,0.00,VWS V14.01,2013-11-10 09:56:00,
2013-11-10 05:01:00,74.9,73.1,30.05,NE,49,1.0,2.0,94,0.16,,FEW021,0.61,0.00,VWS V14.01,2013-11-10 10:01:00,
2013-11-10 05:06:00,74.9,73.1,30.06,NE,42,2.0,6.0,94,0.17,,FEW021,0.62,0.00,VWS V14.01,2013-11-10 10:06:00,
2013-11-10 05:11:00,74.8,73.0,30.06,NE,39,4.0,6.0,94,0.17,,FEW021,0.62,0.00,VWS V14.01,2013-11-10 10:11:00,
2013-11-10 05:16:00,74.8,73.0,30.06,NE,49,5.0,8.0,94,0.17,,FEW021,0.62,0.00,VWS V14.01,2013-11-10 10:16:00,
2013-11-10 05:21:00,74.7,72.9,30.06,NNE,31,3.0,7.0,94,0.17,,FEW021,0.62,0.00,VWS V14.01,2013-11-10 10:21:00,
2013-11-10 05:26:00,74.7,72.9,30.06,NE,37,5.0,12.0,94,0.17,,FEW021,0.62,0.00,VWS V14.01,2013-11-10 10:26:00,
2013-11-10 05:31:00,74.7,72.9,30.06,NE,44,9.0,9.0,94,0.16,,FEW021,0.62,0.00,VWS V14.01,2013-11-10 10:31:00,
2013-11-10 05:36:00,74.6,72.8,30.07,NE,41,5.0,10.0,94,0.16,,FEW021,0.62,0.00,VWS V14.01,2013-11-10 10:36:00,
2013-11-10 05:41:00,74.7,72.9,30.07,NE,34,5.0,7.0,94,0.11,,FEW021,0.62,0.00,VWS V14.01,2013-11-10 10:41:00,
2013-11-10 05:46:00,74.8,72.6,30.07,NE,52,3.0,11.0,93,0.02,,FEW021,0.62,0.00,VWS V14.01,2013-11-10 10:46:00,
2013-11-10 05:51:00,74.9,72.7,30.07,NNE,32,4.0,9.0,93,0.02,,FEW021,0.62,0.00,VWS V14.01,2013-11-10 10:51:00,
2013-11-10 05:56:00,75.0,72.5,30.07,NE,47,3.0,6.0,92,0.02,,FEW021,0.62,0.00,VWS V14.01,2013-11-10 10:56:00,
2013-11-10 06:01:00,75.1,72.6,30.07,NE,40,4.0,9.0,92,0.01,,FEW021,0.62,0.00,VWS V14.01,2013-11-10 11:01:00,
2013-11-10 06:06:00,75.1,72.3,30.07,NE,40,7.0,8.0,91,0.00,,FEW021,0.62,0.00,VWS V14.01,2013-11-10 11:06:00,
2013-11-10 06:11:00,75.1,72.3,30.07,NNE,24,5.0,7.0,91,0.00,,FEW021,0.62,0.00,VWS V14.01,2013-11-10 11:11:00,
2013-11-10 06:16:00,75.1,72.0,30.08,ENE,74,4.0,8.0,90,0.00,,FEW021,0.62,0.00,VWS V14.01,2013-11-10 11:16:00,
2013-11-10 06:21:00,75.1,72.0,30.08,NNE,30,5.0,11.0,90,0.00,,FEW021,0.62,0.00,VWS V14.01,2013-11-10 11:21:00,
2013-11-10 06:26:00,75.0,71.5,30.08,NE,42,3.0,6.0,89,0.00,,FEW021,0.62,0.00,VWS V14.01,2013-11-10 11:26:00,
2013-11-10 06:31:00,75.0,71.5,30.08,NE,49,4.0,8.0,89,0.00,,FEW021,0.62,0.00,VWS V14.01,2013-11-10 11:31:00,
2013-11-10 06:36:00,75.0,71.2,30.08,ENE,73,4.0,6.0,88,0.00,,FEW021,0.62,5.00,VWS V14.01,2013-11-10 11:36:00,
2013-11-10 06:41:00,75.0,70.9,30.09,NE,42,3.0,6.0,87,0.00,,FEW021,0.62,9.00,VWS V14.01,2013-11-10 11:41:00,
2013-11-10 06:46:00,75.1,71.0,30.09,NE,46,3.0,7.0,87,0.00,,FEW021,0.62,14.00,VWS V14.01,2013-11-10 11:46:00,
2013-11-10 06:51:00,75.2,70.7,30.09,NE,38,3.0,8.0,86,0.00,,FEW021,0.62,14.00,VWS V14.01,2013-11-10 11:51:00,
2013-11-10 06:55:00,75.3,70.8,30.09,NE,34,4.0,5.0,86,0.00,,FEW021,0.62,14.00,VWS V14.01,2013-11-10 11:55:00,
2013-11-10 07:01:00,75.4,70.9,30.09,ENE,67,8.0,8.0,86,0.00,,FEW021,0.62,14.00,VWS V14.01,2013-11-10 12:01:00,
2013-11-10 07:06:00,75.6,71.1,30.10,NNE,31,4.0,7.0,86,0.00,,FEW021,0.62,26.00,VWS V14.01,2013-11-10 12:06:00,
2013-11-10 07:10:00,75.7,70.9,30.10,ENE,71,5.0,10.0,85,0.00,,FEW021,0.62,37.00,VWS V14.01,2013-11-10 12:10:00,
2013-11-10 07:15:00,75.8,71.0,30.10,NE,50,4.0,9.0,85,0.00,,FEW021,0.62,39.00,VWS V14.01,2013-11-10 12:15:00,
2013-11-10 07:20:00,75.9,70.7,30.10,NE,36,3.0,9.0,84,0.00,,FEW021,0.62,44.00,VWS V14.01,2013-11-10 12:20:00,
2013-11-10 07:25:00,76.0,70.8,30.10,NE,49,5.0,8.0,84,0.00,,FEW021,0.62,62.00,VWS V14.01,2013-11-10 12:25:00,
2013-11-10 07:30:00,76.1,70.9,30.10,NNE,15,8.0,8.0,84,0.00,,FEW021,0.62,69.00,VWS V14.01,2013-11-10 12:30:00,
2013-11-10 07:35:00,76.3,71.1,30.10,ENE,73,4.0,11.0,84,0.00,,FEW021,0.62,62.00,VWS V14.01,2013-11-10 12:35:00,
2013-11-10 07:40:00,76.5,71.0,30.10,NNE,30,5.0,9.0,83,0.00,,FEW021,0.62,98.00,VWS V14.01,2013-11-10 12:40:00,
2013-11-10 07:45:00,76.7,71.2,30.10,NNE,32,5.0,5.0,83,0.00,,FEW021,0.62,225.00,VWS V14.01,2013-11-10 12:45:00,
2013-11-10 07:50:00,77.3,71.4,30.10,NE,38,5.0,10.0,82,0.00,,FEW021,0.62,214.00,VWS V14.01,2013-11-10 12:50:00,
2013-11-10 07:55:00,77.9,71.6,30.10,NE,44,4.0,8.0,81,0.00,,FEW021,0.62,283.00,VWS V14.01,2013-11-10 12:55:00,
2013-11-10 08:00:00,78.5,71.8,30.10,NNE,25,7.0,7.0,80,0.00,,FEW021,0.62,274.00,VWS V14.01,2013-11-10 13:00:00,
2013-11-10 08:05:00,78.8,71.7,30.10,NE,56,5.0,10.0,79,0.00,,FEW021,0.62,330.00,VWS V14.01,2013-11-10 13:05:00,
2013-11-10 08:10:00,79.0,71.6,30.10,ESE,115,7.0,14.0,78,0.00,,FEW021,0.62,223.00,VWS V14.01,2013-11-10 13:10:00,
2013-11-10 08:15:00,79.0,71.6,30.10,NE,43,10.0,11.0,78,0.00,,FEW021,0.62,285.00,VWS V14.01,2013-11-10 13:15:00,
2013-11-10 08:20:00,79.2,71.4,30.10,NE,48,5.0,10.0,77,0.00,,FEW021,0.62,230.00,VWS V14.01,2013-11-10 13:20:00,
2013-11-10 08:25:00,79.2,71.4,30.10,East,94,3.0,12.0,77,0.00,,FEW021,0.62,216.00,VWS V14.01,2013-11-10 13:25:00,
2013-11-10 08:30:00,79.2,71.8,30.11,NNE,27,7.0,10.0,78,0.00,,FEW021,0.62,294.00,VWS V14.01,2013-11-10 13:30:00,
2013-11-10 08:35:00,79.3,71.5,30.11,ENE,63,3.0,9.0,77,0.00,,FEW021,0.62,295.00,VWS V14.01,2013-11-10 13:35:00,
2013-11-10 08:40:00,79.4,71.6,30.11,ENE,71,8.0,11.0,77,0.00,,FEW021,0.62,366.00,VWS V14.01,2013-11-10 13:40:00,
2013-11-10 08:45:00,79.6,71.8,30.11,ENE,66,8.0,11.0,77,0.00,,FEW021,0.62,353.00,VWS V14.01,2013-11-10 13:45:00,
2013-11-10 08:50:00,79.9,71.7,30.11,NE,51,6.0,11.0,76,0.00,,FEW021,0.62,272.00,VWS V14.01,2013-11-10 13:50:00,
2013-11-10 08:55:00,79.9,71.7,30.11,NE,43,6.0,10.0,76,0.00,,FEW021,0.62,281.00,VWS V14.01,2013-11-10 13:55:00,
2013-11-10 09:00:00,79.8,71.2,30.11,NE,53,4.0,17.0,75,0.00,,FEW021,0.62,287.00,VWS V14.01,2013-11-10 14:00:00,
2013-11-10 09:05:00,79.8,71.6,30.11,NE,43,7.0,11.0,76,0.00,,FEW021,0.62,237.00,VWS V14.01,2013-11-10 14:05:00,
2013-11-10 09:10:00,79.8,71.9,30.11,NE,46,5.0,9.0,77,0.00,,FEW021,0.62,223.00,VWS V14.01,2013-11-10 14:10:00,
2013-11-10 09:15:00,79.8,71.6,30.11,NE,40,7.0,11.0,76,0.00,,FEW021,0.62,218.00,VWS V14.01,2013-11-10 14:15:00,
2013-11-10 09:20:00,79.8,71.9,30.11,NE,46,4.0,14.0,77,0.00,,FEW021,0.62,209.00,VWS V14.01,2013-11-10 14:20:00,
2013-11-10 09:25:00,79.8,72.3,30.11,NE,38,7.0,8.0,78,0.00,,FEW021,0.62,218.00,VWS V14.01,2013-11-10 14:25:00,
2013-11-10 09:30:00,79.8,71.9,30.12,ENE,74,3.0,7.0,77,0.00,,FEW021,0.62,243.00,VWS V14.01,2013-11-10 14:30:00,
2013-11-10 09:35:00,79.8,71.9,30.12,NE,42,4.0,8.0,77,0.00,,FEW021,0.62,253.00,VWS V14.01,2013-11-10 14:35:00,
2013-11-10 09:40:00,80.0,72.2,30.12,ENE,74,5.0,7.0,77,0.00,,FEW021,0.62,227.00,VWS V14.01,2013-11-10 14:40:00,
2013-11-10 09:45:00,80.0,72.2,30.12,NNE,22,11.0,12.0,77,0.00,,FEW021,0.62,253.00,VWS V14.01,2013-11-10 14:45:00,
2013-11-10 09:50:00,79.9,71.7,30.12,ENE,68,3.0,12.0,76,0.00,,FEW021,0.62,243.00,VWS V14.01,2013-11-10 14:50:00,
2013-11-10 09:55:00,80.0,71.4,30.12,NE,47,13.0,13.0,75,0.00,,FEW021,0.62,274.00,VWS V14.01,2013-11-10 14:55:00,
2013-11-10 10:00:00,80.0,71.0,30.12,NE,51,5.0,13.0,74,0.00,,FEW021,0.62,323.00,VWS V14.01,2013-11-10 15:00:00,
2013-11-10 10:05:00,80.2,71.6,30.11,ENE,67,4.0,15.0,75,0.00,,FEW021,0.62,338.00,VWS V14.01,2013-11-10 15:05:00,
2013-11-10 10:10:00,80.5,72.2,30.12,NE,49,5.0,10.0,76,0.00,,FEW021,0.62,364.00,VWS V14.01,2013-11-10 15:10:00,
2013-11-10 10:15:00,80.9,72.2,30.11,NE,35,11.0,11.0,75,0.00,,FEW021,0.62,568.00,VWS V14.01,2013-11-10 15:15:00,
2013-11-10 10:20:00,81.3,72.2,30.11,East,92,5.0,10.0,74,0.00,,FEW021,0.62,394.00,VWS V14.01,2013-11-10 15:20:00,
2013-11-10 10:25:00,81.6,71.7,30.11,East,84,6.0,13.0,72,0.00,,FEW021,0.62,591.00,VWS V14.01,2013-11-10 15:25:00,
2013-11-10 10:30:00,81.9,72.4,30.11,ENE,69,4.0,9.0,73,0.00,,FEW021,0.62,591.00,VWS V14.01,2013-11-10 15:30:00,
2013-11-10 10:35:00,81.9,71.6,30.11,NNE,31,10.0,13.0,71,0.00,,FEW021,0.62,503.00,VWS V14.01,2013-11-10 15:35:00,
2013-11-10 10:40:00,82.1,72.2,30.11,NE,46,6.0,15.0,72,0.00,,FEW021,0.62,649.00,VWS V14.01,2013-11-10 15:40:00,
2013-11-10 10:45:00,82.7,71.9,30.11,NE,42,3.0,12.0,70,0.00,,FEW021,0.62,671.00,VWS V14.01,2013-11-10 15:45:00,
2013-11-10 10:50:00,83.4,72.6,30.11,ENE,73,4.0,10.0,70,0.00,,FEW021,0.62,471.00,VWS V14.01,2013-11-10 15:50:00,
2013-11-10 10:55:00,83.1,71.9,30.11,NE,43,11.0,11.0,69,0.00,,FEW021,0.62,497.00,VWS V14.01,2013-11-10 15:55:00,
2013-11-10 11:00:00,83.2,72.0,30.10,NE,49,6.0,8.0,69,0.00,,FEW021,0.62,492.00,VWS V14.01,2013-11-10 16:00:00,
2013-11-10 11:05:00,83.0,70.9,30.10,ENE,66,8.0,13.0,67,0.00,,FEW021,0.62,490.00,VWS V14.01,2013-11-10 16:05:00,
2013-11-10 11:10:00,83.0,71.4,30.10,NNE,24,14.0,14.0,68,0.00,,FEW021,0.62,733.00,VWS V14.01,2013-11-10 16:10:00,
2013-11-10 11:15:00,83.0,71.4,30.10,NNE,32,8.0,9.0,68,0.00,,FEW021,0.62,504.00,VWS V14.01,2013-11-10 16:15:00,
2013-11-10 11:20:00,83.3,71.2,30.09,NE,38,8.0,13.0,67,0.00,,FEW021,0.62,846.00,VWS V14.01,2013-11-10 16:20:00,
2013-11-10 11:25:00,83.6,71.1,30.10,NNE,26,8.0,15.0,66,0.00,,FEW021,0.62,612.00,VWS V14.01,2013-11-10 16:25:00,
2013-11-10 11:30:00,83.5,71.4,30.10,ESE,121,5.0,10.0,67,0.00,,FEW021,0.62,548.00,VWS V14.01,2013-11-10 16:30:00,
2013-11-10 11:35:00,83.6,71.1,30.10,ENE,70,5.0,13.0,66,0.00,,FEW021,0.62,513.00,VWS V14.01,2013-11-10 16:35:00,
2013-11-10 11:40:00,83.5,71.4,30.09,NE,34,3.0,11.0,67,0.00,,FEW021,0.62,663.00,VWS V14.01,2013-11-10 16:40:00,
2013-11-10 11:45:00,84.0,71.0,30.09,NE,34,3.0,11.0,65,0.00,,FEW021,0.62,557.00,VWS V14.01,2013-11-10 16:45:00,
2013-11-10 11:50:00,83.9,69.5,30.09,NE,36,8.0,13.0,62,0.00,,FEW021,0.62,415.00,VWS V14.01,2013-11-10 16:50:00,
2013-11-10 11:55:00,83.5,69.6,30.09,ENE,74,4.0,9.0,63,0.00,,FEW021,0.62,355.00,VWS V14.01,2013-11-10 16:55:00,
2013-11-10 12:00:00,83.1,69.2,30.09,NE,51,3.0,14.0,63,0.00,,FEW021,0.62,330.00,VWS V14.01,2013-11-10 17:00:00,
2013-11-10 12:05:00,82.9,69.9,30.09,NNE,30,6.0,8.0,65,0.00,,FEW021,0.62,364.00,VWS V14.01,2013-11-10 17:05:00,
2013-11-10 12:10:00,82.8,70.3,30.08,NE,51,5.0,12.0,66,0.00,,FEW021,0.62,373.00,VWS V14.01,2013-11-10 17:10:00,
2013-11-10 12:15:00,83.0,70.5,30.08,East,91,3.0,7.0,66,0.00,,FEW021,0.62,373.00,VWS V14.01,2013-11-10 17:15:00,
2013-11-10 12:20:00,82.8,70.3,30.08,SE,132,3.0,14.0,66,0.00,,FEW021,0.62,357.00,VWS V14.01,2013-11-10 17:20:00,
2013-11-10 12:25:00,82.7,70.2,30.08,NE,38,10.0,10.0,66,0.00,,FEW021,0.62,336.00,VWS V14.01,2013-11-10 17:25:00,
2013-11-10 12:30:00,82.4,69.9,30.08,NE,35,6.0,11.0,66,0.00,,FEW021,0.62,385.00,VWS V14.01,2013-11-10 17:30:00,
2013-11-10 12:35:00,82.6,70.1,30.08,NNE,29,4.0,10.0,66,0.00,,FEW021,0.62,429.00,VWS V14.01,2013-11-10 17:35:00,
2013-11-10 12:40:00,83.0,70.5,30.07,NE,46,4.0,8.0,66,0.00,,FEW021,0.62,775.00,VWS V14.01,2013-11-10 17:40:00,
2013-11-10 12:45:00,83.4,70.9,30.07,NE,49,7.0,16.0,66,0.00,,FEW021,0.62,932.00,VWS V14.01,2013-11-10 17:45:00,
2013-11-10 12:50:00,84.0,71.4,30.07,NE,48,11.0,15.0,66,0.00,,FEW021,0.62,661.00,VWS V14.01,2013-11-10 17:50:00,
2013-11-10 12:55:00,84.4,71.8,30.07,ENE,69,9.0,10.0,66,0.00,,FEW021,0.62,823.00,VWS V14.01,2013-11-10 17:55:00,
2013-11-10 13:00:00,84.4,71.4,30.06,NE,44,3.0,14.0,65,0.00,,FEW021,0.62,807.00,VWS V14.01,2013-11-10 18:00:00,
2013-11-10 13:05:00,84.7,72.1,30.06,NNE,31,8.0,11.0,66,0.00,,FEW021,0.62,816.00,VWS V14.01,2013-11-10 18:05:00,
2013-11-10 13:10:00,84.4,71.4,30.06,NE,38,7.0,14.0,65,0.00,,FEW021,0.62,396.00,VWS V14.01,2013-11-10 18:10:00,
2013-11-10 13:15:00,83.7,71.6,30.06,NE,45,12.0,12.0,67,0.00,,FEW021,0.62,279.00,VWS V14.01,2013-11-10 18:15:00,
2013-11-10 13:20:00,82.9,71.3,30.06,NE,42,7.0,13.0,68,0.00,,FEW021,0.62,441.00,VWS V14.01,2013-11-10 18:20:00,
2013-11-10 13:25:00,83.0,70.9,30.06,NE,44,4.0,8.0,67,0.00,,FEW021,0.62,439.00,VWS V14.01,2013-11-10 18:25:00,
2013-11-10 13:30:00,83.4,70.4,30.06,NE,40,5.0,12.0,65,0.00,,FEW021,0.62,397.00,VWS V14.01,2013-11-10 18:30:00,
2013-11-10 13:35:00,83.8,70.8,30.06,East,97,6.0,8.0,65,0.00,,FEW021,0.62,742.00,VWS V14.01,2013-11-10 18:35:00,
2013-11-10 13:40:00,84.6,70.6,30.06,ESE,107,2.0,12.0,63,0.00,,FEW021,0.62,615.00,VWS V14.01,2013-11-10 18:40:00,
2013-11-10 13:45:00,84.5,70.5,30.06,NE,53,3.0,12.0,63,0.00,,FEW021,0.62,487.00,VWS V14.01,2013-11-10 18:45:00,
2013-11-10 13:50:00,84.3,70.3,30.06,NNE,28,6.0,9.0,63,0.00,,FEW021,0.62,526.00,VWS V14.01,2013-11-10 18:50:00,
2013-11-10 13:55:00,84.3,70.3,30.06,NE,36,8.0,14.0,63,0.00,,FEW021,0.62,492.00,VWS V14.01,2013-11-10 18:55:00,
2013-11-10 14:00:00,84.2,70.2,30.05,NE,39,15.0,15.0,63,0.00,,FEW021,0.62,497.00,VWS V14.01,2013-11-10 19:00:00,
2013-11-10 14:05:00,84.3,70.3,30.05,SE,128,4.0,10.0,63,0.00,,FEW021,0.62,823.00,VWS V14.01,2013-11-10 19:05:00,
2013-11-10 14:10:00,84.7,71.2,30.05,NNE,22,4.0,13.0,64,0.00,,FEW021,0.62,707.00,VWS V14.01,2013-11-10 19:10:00,
2013-11-10 14:15:00,84.9,71.4,30.05,NE,46,5.0,13.0,64,0.00,,FEW021,0.62,810.00,VWS V14.01,2013-11-10 19:15:00,
2013-11-10 14:20:00,85.1,71.1,30.05,NE,40,5.0,13.0,63,0.00,,FEW021,0.62,788.00,VWS V14.01,2013-11-10 19:20:00,
2013-11-10 14:25:00,84.6,70.2,30.04,NE,43,7.0,13.0,62,0.00,,FEW021,0.62,459.00,VWS V14.01,2013-11-10 19:25:00,
2013-11-10 14:30:00,84.1,70.2,30.04,NE,36,9.0,12.0,63,0.00,,FEW021,0.62,367.00,VWS V14.01,2013-11-10 19:30:00,
2013-11-10 14:35:00,83.8,70.8,30.04,NE,52,9.0,11.0,65,0.00,,FEW021,0.62,663.00,VWS V14.01,2013-11-10 19:35:00,
2013-11-10 14:40:00,83.9,71.3,30.04,NE,49,4.0,12.0,66,0.00,,FEW021,0.62,543.00,VWS V14.01,2013-11-10 19:40:00,
2013-11-10 14:45:00,83.8,70.8,30.04,NE,40,8.0,13.0,65,0.00,,FEW021,0.62,385.00,VWS V14.01,2013-11-10 19:45:00,
2013-11-10 14:50:00,83.3,69.9,30.04,NE,39,6.0,13.0,64,0.00,,FEW021,0.62,257.00,VWS V14.01,2013-11-10 19:50:00,
2013-11-10 14:55:00,82.8,70.3,30.04,NNE,33,3.0,13.0,66,0.00,,FEW021,0.62,237.00,VWS V14.01,2013-11-10 19:55:00,
2013-11-10 15:00:00,82.5,70.4,30.04,NE,34,12.0,13.0,67,0.00,,FEW021,0.62,323.00,VWS V14.01,2013-11-10 20:00:00,
2013-11-10 15:05:00,82.4,69.5,30.04,NE,36,9.0,12.0,65,0.00,,FEW021,0.62,446.00,VWS V14.01,2013-11-10 20:05:00,
2013-11-10 15:10:00,82.5,70.4,30.04,NNE,21,4.0,8.0,67,0.00,,FEW021,0.62,401.00,VWS V14.01,2013-11-10 20:10:00,
2013-11-10 15:15:00,82.6,70.1,30.04,ENE,69,7.0,12.0,66,0.00,,FEW021,0.62,193.00,VWS V14.01,2013-11-10 20:15:00,
2013-11-10 15:20:00,82.4,70.3,30.04,NE,41,8.0,10.0,67,0.00,,FEW021,0.62,142.00,VWS V14.01,2013-11-10 20:20:00,
2013-11-10 15:25:00,82.1,69.6,30.04,NNE,28,9.0,13.0,66,0.00,,FEW021,0.62,188.00,VWS V14.01,2013-11-10 20:25:00,
2013-11-10 15:30:00,81.9,69.9,30.04,NE,51,9.0,12.0,67,0.00,,FEW021,0.62,179.00,VWS V14.01,2013-11-10 20:30:00,
2013-11-10 15:35:00,81.7,69.7,30.04,NNE,28,3.0,9.0,67,0.00,,FEW021,0.62,207.00,VWS V14.01,2013-11-10 20:35:00,
2013-11-10 15:40:00,81.6,70.4,30.04,NNE,26,4.0,13.0,69,0.00,,FEW021,0.62,197.00,VWS V14.01,2013-11-10 20:40:00,
2013-11-10 15:45:00,81.5,70.4,30.04,NE,42,6.0,14.0,69,0.00,,FEW021,0.62,174.00,VWS V14.01,2013-11-10 20:45:00,
2013-11-10 15:50:00,81.2,70.1,30.05,NE,36,4.0,13.0,69,0.00,,FEW021,0.62,156.00,VWS V14.01,2013-11-10 20:50:00,
2013-11-10 15:55:00,81.0,70.3,30.05,ESE,115,8.0,11.0,70,0.00,,FEW021,0.62,134.00,VWS V14.01,2013-11-10 20:55:00,
2013-11-10 16:00:00,81.0,70.3,30.05,NE,49,4.0,9.0,70,0.00,,FEW021,0.62,171.00,VWS V14.01,2013-11-10 21:00:00,
2013-11-10 16:05:00,81.1,70.0,30.05,NE,41,6.0,8.0,69,0.00,,FEW021,0.62,181.00,VWS V14.01,2013-11-10 21:05:00,
2013-11-10 16:10:00,81.0,69.9,30.06,NE,40,9.0,14.0,69,0.00,,FEW021,0.62,169.00,VWS V14.01,2013-11-10 21:10:00,
2013-11-10 16:15:00,81.0,69.9,30.06,NE,42,10.0,14.0,69,0.00,,FEW021,0.62,171.00,VWS V14.01,2013-11-10 21:15:00,
2013-11-10 16:20:00,81.0,69.9,30.06,NE,35,7.0,11.0,69,0.00,,FEW021,0.62,146.00,VWS V14.01,2013-11-10 21:20:00,
2013-11-10 16:25:00,80.9,70.2,30.06,NE,44,4.0,14.0,70,0.00,,FEW021,0.62,114.00,VWS V14.01,2013-11-10 21:25:00,
2013-11-10 16:30:00,80.7,70.4,30.05,NE,42,7.0,12.0,71,0.00,,FEW021,0.62,125.00,VWS V14.01,2013-11-10 21:30:00,
2013-11-10 16:35:00,80.7,70.8,30.05,NE,52,6.0,11.0,72,0.00,,FEW021,0.62,111.00,VWS V14.01,2013-11-10 21:35:00,
2013-11-10 16:40:00,80.6,70.3,30.05,NNE,29,4.0,9.0,71,0.00,,FEW021,0.62,104.00,VWS V14.01,2013-11-10 21:40:00,
2013-11-10 16:45:00,80.4,70.1,30.05,NE,39,3.0,12.0,71,0.00,,FEW021,0.62,84.00,VWS V14.01,2013-11-10 21:45:00,
2013-11-10 16:50:00,80.3,70.5,30.05,NNE,33,7.0,13.0,72,0.00,,FEW021,0.62,62.00,VWS V14.01,2013-11-10 21:50:00,
2013-11-10 16:55:00,80.2,70.4,30.05,NNE,25,7.0,15.0,72,0.00,,FEW021,0.62,49.00,VWS V14.01,2013-11-10 21:55:00,
2013-11-10 17:00:00,80.0,70.2,30.05,NE,34,7.0,12.0,72,0.00,,FEW021,0.62,33.00,VWS V14.01,2013-11-10 22:00:00,
2013-11-10 17:05:00,79.8,70.0,30.04,NE,50,14.0,14.0,72,0.00,,FEW021,0.62,21.00,VWS V14.01,2013-11-10 22:05:00,
2013-11-10 17:10:00,79.7,70.3,30.05,NE,35,4.0,9.0,73,0.00,,FEW021,0.62,19.00,VWS V14.01,2013-11-10 22:10:00,
2013-11-10 17:15:00,79.5,70.1,30.05,NE,46,7.0,12.0,73,0.00,,FEW021,0.62,18.00,VWS V14.01,2013-11-10 22:15:00,
2013-11-10 17:20:00,79.4,70.0,30.05,NNE,27,10.0,12.0,73,0.00,,FEW021,0.62,9.00,VWS V14.01,2013-11-10 22:20:00,
2013-11-10 17:25:00,79.3,70.3,30.05,NNE,26,5.0,9.0,74,0.00,,FEW021,0.62,7.00,VWS V14.01,2013-11-10 22:25:00,
2013-11-10 17:30:00,79.2,70.2,30.05,NE,46,3.0,6.0,74,0.00,,FEW021,0.62,5.00,VWS V14.01,2013-11-10 22:30:00,
2013-11-10 17:35:00,79.1,70.1,30.05,NNE,32,5.0,13.0,74,0.00,,FEW021,0.62,0.00,VWS V14.01,2013-11-10 22:35:00,
2013-11-10 17:40:00,79.0,70.0,30.06,NE,39,8.0,8.0,74,0.00,,FEW021,0.62,0.00,VWS V14.01,2013-11-10 22:40:00,
2013-11-10 17:45:00,78.8,69.8,30.06,NE,38,3.0,10.0,74,0.00,,FEW021,0.62,0.00,VWS V14.01,2013-11-10 22:45:00,
2013-11-10 17:50:00,78.7,69.7,30.06,NE,38,6.0,9.0,74,0.00,,FEW021,0.62,0.00,VWS V14.01,2013-11-10 22:50:00,
2013-11-10 17:55:00,78.7,69.7,30.06,NE,45,5.0,11.0,74,0.00,,FEW021,0.62,0.00,VWS V14.01,2013-11-10 22:55:00,
2013-11-10 18:00:00,78.7,70.1,30.06,NE,40,4.0,9.0,75,0.00,,FEW021,0.62,0.00,VWS V14.01,2013-11-10 23:00:00,
2013-11-10 18:05:00,78.6,70.0,30.05,East,89,7.0,11.0,75,0.00,,FEW021,0.62,0.00,VWS V14.01,2013-11-10 23:05:00,
2013-11-10 18:10:00,78.5,69.9,30.05,NE,42,3.0,10.0,75,0.00,,FEW021,0.62,0.00,VWS V14.01,2013-11-10 23:10:00,
2013-11-10 18:15:00,78.4,69.8,30.05,NE,44,8.0,8.0,75,0.00,,FEW021,0.62,0.00,VWS V14.01,2013-11-10 23:15:00,
2013-11-10 18:20:00,78.3,69.7,30.05,NE,37,3.0,10.0,75,0.00,,FEW021,0.62,0.00,VWS V14.01,2013-11-10 23:20:00,
2013-11-10 18:25:00,78.2,69.6,30.05,NE,36,6.0,8.0,75,0.00,,FEW021,0.62,0.00,VWS V14.01,2013-11-10 23:25:00,
2013-11-10 18:30:00,78.2,69.6,30.05,NE,49,6.0,8.0,75,0.00,,FEW021,0.62,0.00,VWS V14.01,2013-11-10 23:30:00,
2013-11-10 18:35:00,78.1,69.5,30.05,NE,47,4.0,8.0,75,0.00,,FEW021,0.62,0.00,VWS V14.01,2013-11-10 23:35:00,
2013-11-10 18:40:00,78.1,69.5,30.05,NE,49,3.0,8.0,75,0.00,,FEW021,0.62,0.00,VWS V14.01,2013-11-10 23:40:00,
2013-11-10 18:45:00,78.0,69.4,30.06,NNE,32,8.0,8.0,75,0.00,,FEW021,0.62,0.00,VWS V14.01,2013-11-10 23:45:00,
2013-11-10 18:50:00,78.0,69.4,30.06,NE,34,6.0,9.0,75,0.00,,FEW021,0.62,0.00,VWS V14.01,2013-11-10 23:50:00,
2013-11-10 18:55:00,78.1,69.5,30.06,NNE,32,3.0,7.0,75,0.00,,FEW021,0.62,0.00,VWS V14.01,2013-11-10 23:55:00,
2013-11-10 19:00:00,78.0,69.8,30.06,NE,34,4.0,5.0,76,0.00,,FEW021,0.62,0.00,VWS V14.01,2013-11-11 00:00:00,
2013-11-10 19:05:00,78.0,69.8,30.07,NE,52,3.0,7.0,76,0.00,,FEW021,0.62,0.00,VWS V14.01,2013-11-11 00:05:00,
2013-11-10 19:10:00,78.0,69.8,30.07,NE,36,4.0,9.0,76,0.00,,FEW021,0.62,0.00,VWS V14.01,2013-11-11 00:10:00,
2013-11-10 19:15:00,78.0,69.8,30.07,NE,43,5.0,8.0,76,0.00,,FEW021,0.62,0.00,VWS V14.01,2013-11-11 00:15:00,
2013-11-10 19:20:00,77.9,69.7,30.07,NE,38,3.0,5.0,76,0.00,,FEW021,0.62,0.00,VWS V14.01,2013-11-11 00:20:00,
2013-11-10 19:25:00,77.8,69.6,30.07,NE,50,4.0,7.0,76,0.00,,FEW021,0.62,0.00,VWS V14.01,2013-11-11 00:25:00,
2013-11-10 19:30:00,77.7,69.9,30.07,ENE,66,3.0,3.0,77,0.00,,FEW021,0.62,0.00,VWS V14.01,2013-11-11 00:30:00,
2013-11-10 19:35:00,77.6,69.8,30.07,NE,38,4.0,5.0,77,0.00,,FEW021,0.62,0.00,VWS V14.01,2013-11-11 00:35:00,
2013-11-10 19:40:00,77.6,69.8,30.07,NNE,28,3.0,7.0,77,0.00,,FEW021,0.62,0.00,VWS V14.01,2013-11-11 00:40:00,
2013-11-10 19:45:00,77.5,69.7,30.07,NE,38,4.0,8.0,77,0.00,,FEW021,0.62,0.00,VWS V14.01,2013-11-11 00:45:00,
2013-11-10 19:50:00,77.5,69.7,30.07,NE,34,4.0,9.0,77,0.00,,FEW021,0.62,0.00,VWS V14.01,2013-11-11 00:50:00,
2013-11-10 19:55:00,77.5,69.3,30.07,NE,34,2.0,7.0,76,0.00,,FEW021,0.62,0.00,VWS V14.01,2013-11-11 00:55:00,
2013-11-10 20:00:00,77.5,69.3,30.07,NE,34,0.0,7.0,76,0.00,,FEW021,0.62,0.00,VWS V14.01,2013-11-11 01:00:00,
2013-11-10 20:05:00,77.4,69.2,30.07,NE,37,3.0,4.0,76,0.00,,FEW021,0.62,0.00,VWS V14.01,2013-11-11 01:05:00,
2013-11-10 20:10:00,77.3,69.2,30.07,NE,47,2.0,6.0,76,0.00,,FEW021,0.62,0.00,VWS V14.01,2013-11-11 01:10:00,
2013-11-10 20:15:00,77.3,69.2,30.07,NE,34,2.0,9.0,76,0.00,,FEW021,0.62,0.00,VWS V14.01,2013-11-11 01:15:00,
2013-11-10 20:20:00,77.3,69.2,30.07,NE,36,1.0,6.0,76,0.00,,FEW021,0.62,0.00,VWS V14.01,2013-11-11 01:20:00,
2013-11-10 20:25:00,77.3,69.2,30.07,NNE,33,0.0,4.0,76,0.00,,FEW021,0.62,0.00,VWS V14.01,2013-11-11 01:25:00,
2013-11-10 20:30:00,77.2,69.1,30.08,NE,45,2.0,6.0,76,0.00,,FEW021,0.62,0.00,VWS V14.01,2013-11-11 01:30:00,
2013-11-10 20:35:00,77.1,69.3,30.08,NE,36,0.0,4.0,77,0.00,,FEW021,0.62,0.00,VWS V14.01,2013-11-11 01:35:00,
2013-11-10 20:40:00,77.0,69.2,30.08,NE,44,0.0,4.0,77,0.00,,FEW021,0.62,0.00,VWS V14.01,2013-11-11 01:40:00,
2013-11-10 20:45:00,76.9,69.2,30.08,ENE,71,0.0,5.0,77,0.00,,FEW021,0.62,0.00,VWS V14.01,2013-11-11 01:45:00,
2013-11-10 20:50:00,76.9,69.2,30.08,NE,44,1.0,3.0,77,0.00,,FEW021,0.62,0.00,VWS V14.01,2013-11-11 01:50:00,
2013-11-10 20:55:00,76.9,69.2,30.08,NE,40,1.0,4.0,77,0.00,,FEW021,0.62,0.00,VWS V14.01,2013-11-11 01:55:00,
2013-11-10 21:00:00,76.9,69.5,30.08,NE,52,2.0,4.0,78,0.00,,FEW021,0.62,0.00,VWS V14.01,2013-11-11 02:00:00,
2013-11-10 21:05:00,76.8,69.4,30.08,NE,48,4.0,7.0,78,0.00,,FEW021,0.62,0.00,VWS V14.01,2013-11-11 02:05:00,
2013-11-10 21:10:00,76.8,69.8,30.08,NE,36,3.0,4.0,79,0.00,,FEW021,0.62,0.00,VWS V14.01,2013-11-11 02:10:00,
2013-11-10 21:15:00,76.8,69.8,30.09,NE,38,1.0,5.0,79,0.00,,FEW021,0.62,0.00,VWS V14.01,2013-11-11 02:15:00,
2013-11-10 21:20:00,76.8,69.8,30.09,NE,42,0.0,4.0,79,0.00,,FEW021,0.62,0.00,VWS V14.01,2013-11-11 02:20:00,
2013-11-10 21:25:00,76.7,69.7,30.09,NE,44,0.0,3.0,79,0.00,,FEW021,0.62,0.00,VWS V14.01,2013-11-11 02:25:00,
2013-11-10 21:30:00,76.6,70.0,30.09,NNE,24,2.0,4.0,80,0.00,,FEW021,0.62,0.00,VWS V14.01,2013-11-11 02:30:00,
2013-11-10 21:35:00,76.6,70.0,30.09,NE,47,2.0,6.0,80,0.00,,FEW021,0.62,0.00,VWS V14.01,2013-11-11 02:35:00,
2013-11-10 21:39:00,76.5,69.9,30.09,NE,47,0.0,1.0,80,0.00,,FEW021,0.62,0.00,VWS V14.01,2013-11-11 02:39:00,
2013-11-10 21:44:00,76.4,69.8,30.09,NE,48,0.0,3.0,80,0.00,,FEW021,0.62,0.00,VWS V14.01,2013-11-11 02:44:00,
2013-11-10 21:49:00,76.2,69.6,30.09,NE,48,0.0,3.0,80,0.00,,FEW021,0.62,0.00,VWS V14.01,2013-11-11 02:49:00,
2013-11-10 21:54:00,76.1,69.5,30.09,NNE,32,0.0,4.0,80,0.00,,FEW021,0.62,0.00,VWS V14.01,2013-11-11 02:54:00,
2013-11-10 21:59:00,76.0,69.4,30.09,NE,41,3.0,4.0,80,0.00,,FEW021,0.62,0.00,VWS V14.01,2013-11-11 02:59:00,
2013-11-10 22:04:00,76.0,69.0,30.09,NE,49,0.0,4.0,79,0.00,,FEW021,0.62,0.00,VWS V14.01,2013-11-11 03:04:00,
2013-11-10 22:09:00,76.1,69.1,30.09,NE,37,5.0,7.0,79,0.00,,FEW021,0.62,0.00,VWS V14.01,2013-11-11 03:09:00,
2013-11-10 22:14:00,76.2,69.2,30.09,NE,34,6.0,7.0,79,0.00,,FEW021,0.62,0.00,VWS V14.01,2013-11-11 03:14:00,
2013-11-10 22:19:00,76.4,69.4,30.09,NE,44,3.0,5.0,79,0.00,,FEW021,0.62,0.00,VWS V14.01,2013-11-11 03:19:00,
2013-11-10 22:24:00,76.5,69.5,30.09,NE,35,4.0,7.0,79,0.00,,FEW021,0.62,0.00,VWS V14.01,2013-11-11 03:24:00,
2013-11-10 22:29:00,76.5,69.5,30.08,NE,46,0.0,5.0,79,0.00,,FEW021,0.62,0.00,VWS V14.01,2013-11-11 03:29:00,
2013-11-10 22:34:00,76.5,69.5,30.08,NE,34,0.0,5.0,79,0.00,,FEW021,0.62,0.00,VWS V14.01,2013-11-11 03:34:00,
2013-11-10 22:39:00,76.4,69.4,30.08,NE,50,4.0,5.0,79,0.00,,FEW021,0.62,0.00,VWS V14.01,2013-11-11 03:39:00,
2013-11-10 22:44:00,76.4,69.4,30.09,NE,40,1.0,5.0,79,0.00,,FEW021,0.62,0.00,VWS V14.01,2013-11-11 03:44:00,
2013-11-10 22:49:00,76.3,69.3,30.09,NNE,32,1.0,5.0,79,0.00,,FEW021,0.62,0.00,VWS V14.01,2013-11-11 03:49:00,
2013-11-10 22:54:00,76.2,69.2,30.09,NE,34,2.0,4.0,79,0.00,,FEW021,0.62,0.00,VWS V14.01,2013-11-11 03:54:00,
2013-11-10 22:59:00,76.2,69.6,30.09,NE,42,3.0,5.0,80,0.00,,FEW021,0.62,0.00,VWS V14.01,2013-11-11 03:59:00,
2013-11-10 23:04:00,76.2,69.6,30.09,NE,35,2.0,4.0,80,0.00,,FEW021,0.62,0.00,VWS V14.01,2013-11-11 04:04:00,
2013-11-10 23:09:00,76.1,69.5,30.09,NE,38,2.0,5.0,80,0.00,,FEW021,0.62,0.00,VWS V14.01,2013-11-11 04:09:00,
2013-11-10 23:14:00,76.1,69.5,30.09,NE,42,4.0,6.0,80,0.00,,FEW021,0.62,0.00,VWS V14.01,2013-11-11 04:14:00,
2013-11-10 23:19:00,76.0,69.0,30.08,NE,42,0.0,4.0,79,0.00,,FEW021,0.62,0.00,VWS V14.01,2013-11-11 04:19:00,
2013-11-10 23:24:00,76.0,69.0,30.08,ENE,67,2.0,4.0,79,0.00,,FEW021,0.62,0.00,VWS V14.01,2013-11-11 04:24:00,
2013-11-10 23:29:00,75.9,68.9,30.08,NE,46,3.0,4.0,79,0.00,,FEW021,0.62,0.00,VWS V14.01,2013-11-11 04:29:00,
2013-11-10 23:34:00,75.9,68.9,30.08,NE,39,2.0,4.0,79,0.00,,FEW021,0.62,0.00,VWS V14.01,2013-11-11 04:34:00,
2013-11-10 23:39:00,75.9,68.9,30.08,NE,39,1.0,5.0,79,0.00,,FEW021,0.62,0.00,VWS V14.01,2013-11-11 04:39:00,
2013-11-10 23:44:00,75.8,68.8,30.08,NE,34,0.0,3.0,79,0.00,,FEW021,0.62,0.00,VWS V14.01,2013-11-11 04:44:00,
2013-11-10 23:49:00,75.7,69.1,30.08,NE,35,0.0,2.0,80,0.00,,FEW021,0.62,0.00,VWS V14.01,2013-11-11 04:49:00,
2013-11-10 23:54:00,75.6,69.0,30.08,NE,35,0.0,1.0,80,0.00,,FEW021,0.62,0.00,VWS V14.01,2013-11-11 04:54:00,
2013-11-10 23:59:00,75.5,68.9,30.08,NE,35,0.0,3.0,80,0.00,,FEW021,0.00,0.00,VWS V14.01,2013-11-11 04:59:00,